Paul R Tregurtha — WYR4481 — position and weather

sailwx.info

Track history (hours):
 
Tides and Currents Weather Stations Pressure Air Temp Water Temp Dewpoint Dewpoint Depression Visibility Wind Speed Wind Dir Waves Ship Positions

Paul R Tregurtha

More information available from US FCC via Universal Licensing System and Coast Guard Vessel Documentation Center.

Last reported at 2014-Jul-25 14:00 UTC. Time now 2014-Jul-25 14:59 UTC.
Position N 47°12' W 090°48'.

Length 308 m; draft 7 m.

Type: Cargo ship. MMSI: 366904940.

Wind from 010 at 9 knots

Barometer 1010.2 mb
Air temperature 11.0 ° C
Visibility: greater than 10.8 NM
Water temperature 9.7 ° C

Date/timePositionNaut miles runAvg speedWind from/ knotsBaromVisibWave heightAir tempDewpointWater temp
2014-Jul-25 14:00N 47°12' W 090°48'1010.1 010 / 91010.210.8 11.0 9.7
2014-Jul-25 13:00N 47°06' W 091°00'1212.3 040 / 91010.5 12.2 8.5
2014-Jul-25 12:00N 47°06' W 091°18'1413.7 1011.510.8 0.510.4 9.8
2014-Jul-25 11:00N 47°00' W 091°36'1010.2 030 / 81010.810.8 0.510.0 11.1
2014-Jul-25 10:00N 46°54' W 091°48'1413.7 030 / 81011.2 12.1 13.3
2014-Jul-25 09:00N 46°48' W 092°06'6 6.0 030 / 11012.2 15.0 18.2
2014-Jul-25 08:00N 46°42' W 092°06'0 0.0 060 / 81012.2 15.2 18.7
2014-Jul-25 07:00N 46°42' W 092°06'0 0.0 070 / 101012.2 15.4 19.4
2014-Jul-25 06:00N 46°42' W 092°06'0 0.0 070 / 81013.2 17.1 18.1
2014-Jul-25 04:00N 46°42' W 092°06'0 0.0 070 / 41012.9 18.5 19.6
2014-Jul-25 03:00N 46°42' W 092°06'0 0.0 280 / 11014.2 19.6 19.5
2014-Jul-25 01:00N 46°42' W 092°06'0 0.0 060 / 41014.9 18.3 19.0
2014-Jul-25 00:00N 46°42' W 092°06'0 0.0 170 / 71014.2 19.5 18.4
2014-Jul-24 23:00N 46°42' W 092°06'20 6.8 060 / 61013.9 19.4 18.5
2014-Jul-24 20:00N 46°54' W 091°42'1413.7 080 / 61017.6 15.1 11.7
2014-Jul-24 19:00N 47°00' W 091°24'1212.3 090 / 81017.9 15.5 10.3
2014-Jul-24 18:00N 47°00' W 091°06'1413.7 100 / 31019.3 16.1 8.9
2014-Jul-24 17:00N 47°06' W 090°48'1413.6 070 / 21019.6 13.8 12.0
2014-Jul-24 16:00N 47°12' W 090°30'7813.0 090 / 21020.3 15.0 14.1
2014-Jul-24 10:00N 47°24' W 088°36'1413.6 250 / 71021.0 2.2 9.5 6.0
2014-Jul-24 09:00N 47°30' W 088°18'1212.2 220 / 131021.0 13.6 6.3
2014-Jul-24 08:00N 47°30' W 088°00'12912.9 250 / 91020.7 14.0 8.3
2014-Jul-23 22:00N 46°48' W 085°00'3110.2 280 / 161021.310.8 1.0 8.7 10.9
2014-Jul-23 19:00N 46°30' W 084°24'0 0.0 320 / 171021.0 16.9 14.8
2014-Jul-23 18:00N 46°30' W 084°24'4 4.1 280 / 91021.7 17.7 15.5
2014-Jul-23 17:00N 46°30' W 084°18'7 7.3 340 / 121020.1 18.2 15.2
2014-Jul-23 16:00N 46°24' W 084°12'20 9.9 060 / 61020.4 16.7 15.4
2014-Jul-23 14:00N 46°06' W 084°00'7 7.3 350 / 111019.4 15.4 17.6
2014-Jul-23 13:00N 46°00' W 083°54'2713.5 320 / 121019.410.8 1.014.6 16.7
2014-Jul-23 11:00N 45°36' W 083°36'3712.2 330 / 141017.410.8 1.514.4 15.8
2014-Jul-23 08:00N 45°06' W 083°06'1312.7 320 / 191013.3 14.9 15.4
2014-Jul-23 07:00N 44°54' W 083°00'3812.7 310 / 271012.310.8 1.015.4 17.1
2014-Jul-23 04:00N 44°18' W 082°42'2412.2 340 / 81012.3 20.6 19.1
2014-Jul-23 02:00N 43°54' W 082°36'2412.2 220 / 121012.3 26.2 20.9
2014-Jul-23 00:00N 43°30' W 082°30'1918.5 180 / 141013.010.8 0.526.9 21.0
2014-Jul-22 23:00N 43°12' W 082°24'1212.0 190 / 141013.7 27.8 21.4
2014-Jul-22 22:00N 43°00' W 082°24'7 7.4 200 / 141014.3 29.7 20.9
2014-Jul-22 21:00N 42°54' W 082°30'1212.0 180 / 141015.4 31.3 20.3
2014-Jul-22 20:00N 42°42' W 082°30'6 6.0 180 / 151016.4 30.9 20.1
2014-Jul-22 19:00N 42°36' W 082°30'3210.7 220 / 131016.7 30.4 20.3
2014-Jul-22 16:00N 42°18' W 083°06'1212.0 180 / 71018.2 26.7 22.9
2014-Jul-22 15:00N 42°06' W 083°06'6 6.0 190 / 71018.9 24.0 23.1
2014-Jul-22 14:00N 42°00' W 083°06'7 7.5 190 / 61019.5 22.8 23.2
2014-Jul-22 13:00N 41°54' W 083°12'4 2.2 240 / 71020.1 23.3 24.0
2014-Jul-22 11:00N 41°54' W 083°18'0 0.0 220 / 11019.8 23.1 25.3
2014-Jul-22 10:00N 41°54' W 083°18'0 0.0 170 / 11019.5 23.6 25.3
2014-Jul-22 09:00N 41°54' W 083°18'0 0.0 290 / 11019.5 23.7 25.4
2014-Jul-22 05:00N 41°54' W 083°18'0 0.0 020 / 11019.8 23.9 25.9
2014-Jul-22 04:00N 41°54' W 083°18'0 0.0 270 / 11019.8 24.2 25.7
2014-Jul-22 03:00N 41°54' W 083°18'0 0.0 290 / 41019.8 24.5 25.7
2014-Jul-22 02:00N 41°54' W 083°18'26 6.4 140 / 101020.1 24.7 26.2
2014-Jul-21 22:00N 42°18' W 083°06'1110.7 140 / 81019.6 27.4 22.6
2014-Jul-21 21:00N 42°24' W 082°54'2110.7 100 / 111019.9 23.8 22.2
2014-Jul-21 19:00N 42°36' W 082°30'1212.0 090 / 41020.4 25.9 20.2
2014-Jul-21 18:00N 42°48' W 082°30'0 0.0 180 / 71021.1 28.8 21.5
2014-Jul-21 17:00N 42°48' W 082°30'0 0.0 240 / 61021.5 29.1 22.1
2014-Jul-21 13:00N 42°48' W 082°30'0 0.0 250 / 31021.8 19.6 21.9
2014-Jul-21 11:00N 42°48' W 082°30'0 0.0 240 / 21021.1 16.3 21.8
2014-Jul-21 10:00N 42°48' W 082°30'0 0.0 240 / 21020.4 16.2 21.7
2014-Jul-21 08:00N 42°48' W 082°30'1312.8 020 / 21019.1 16.5 19.7
2014-Jul-21 07:00N 43°00' W 082°24'4210.5 030 / 11019.1 18.5 19.5
2014-Jul-21 03:00N 43°42' W 082°24'1212.0 110 / 41019.1 18.8 18.9
2014-Jul-21 02:00N 43°54' W 082°24'1312.8 140 / 51018.410.8 18.6 19.2
2014-Jul-21 01:00N 44°06' W 082°30'9112.9 080 / 51018.110.8 19.0 20.4
2014-Jul-20 18:00N 45°30' W 083°18'1012.7 120 / 101017.7 5.4 0.515.4 14.0
2014-Jul-20 17:10N 45°37' W 083°28'210.1
2014-Jul-20 17:00N 45°36' W 083°30'1116.6 140 / 121018.4 5.4 0.515.6 16.0
2014-Jul-20 16:21N 45°45' W 083°39'1012.7
2014-Jul-20 15:33N 45°52' W 083°49'4 7.5
2014-Jul-20 15:00N 45°54' W 083°54'917.5 110 / 111018.8 14.3 15.2
2014-Jul-20 14:30N 46°02' W 083°56'9 9.5
2014-Jul-20 13:33N 46°10' W 084°04'611.0
2014-Jul-20 13:00N 46°12' W 084°12'4 8.9 110 / 81018.4 16.8 16.3
2014-Jul-20 12:33N 46°16' W 084°11'6 6.5
2014-Jul-20 11:33N 46°22' W 084°13'8 8.3
2014-Jul-20 10:33N 46°30' W 084°19'1 1.0
2014-Jul-20 10:00N 46°30' W 084°18'2 5.1 100 / 41017.410.8 14.2 15.1
2014-Jul-20 09:33N 46°30' W 084°21'2 3.4
2014-Jul-20 09:00N 46°30' W 084°24'0 0.7 090 / 41017.3 14.9 15.0
2014-Jul-20 08:33N 46°30' W 084°24'0 0.6
2014-Jul-20 08:00N 46°30' W 084°24'511.9 070 / 41016.9 14.8 15.4
2014-Jul-20 07:33N 46°27' W 084°30'5 8.5
2014-Jul-20 07:00N 46°30' W 084°36'510.2 080 / 91016.9 15.7 15.1
2014-Jul-20 06:31N 46°33' W 084°41'1212.1
2014-Jul-20 05:33N 46°43' W 084°51'6 9.9
2014-Jul-20 05:00N 46°48' W 084°54'1413.7 170 / 61016.9 14.6 10.5
2014-Jul-20 04:00N 46°54' W 085°12'1413.7 140 / 151015.9 17.0 6.6
2014-Jul-20 03:00N 47°00' W 085°30'10812.0 150 / 171015.2 17.3 4.2
2014-Jul-19 18:00N 47°36' W 088°00'1212.1 190 / 151012.9 17.8 4.6
2014-Jul-19 17:00N 47°36' W 088°18'2512.5 180 / 131013.2 15.1 4.5
2014-Jul-19 15:00N 47°30' W 088°54'5012.5 180 / 181012.9 12.4 5.7
2014-Jul-19 11:00N 47°18' W 090°06'1212.2 180 / 171012.5 13.0 8.8
2014-Jul-19 10:00N 47°18' W 090°24'1413.6 180 / 151012.510.8 0.514.7 10.2
2014-Jul-19 09:00N 47°12' W 090°42'1212.2 250 / 61012.9 14.3 8.4
2014-Jul-19 08:00N 47°12' W 091°00'1413.6 270 / 21012.9 11.8 6.7
2014-Jul-19 07:00N 47°06' W 091°18'1010.1 360 / 51012.9 6.7 5.9
2014-Jul-19 06:00N 47°00' W 091°30'1413.7 040 / 71013.2 10.6 7.8
2014-Jul-19 05:00N 46°54' W 091°48'1413.7 040 / 51013.2 9.6 12.0
2014-Jul-19 04:00N 46°48' W 092°06'6 3.0 040 / 21013.9 12.9 15.6
2014-Jul-19 02:00N 46°42' W 092°06'0 0.0 040 / 91013.5 14.5 14.5
2014-Jul-19 01:00N 46°42' W 092°06'0 0.0 050 / 71013.5 14.2 15.7
2014-Jul-19 00:00N 46°42' W 092°06'0 0.0 030 / 81013.9 15.0 16.3
2014-Jul-18 23:00N 46°42' W 092°06'0 0.0 040 / 121014.2 15.9 18.5
2014-Jul-18 20:00N 46°42' W 092°06'0 0.0 230 / 91014.9 27.2 15.7
2014-Jul-18 19:00N 46°42' W 092°06'0 0.0 200 / 141014.9 26.3 15.3
2014-Jul-18 17:00N 46°42' W 092°06'0 0.0 050 / 71016.3 17.7 15.7
2014-Jul-18 15:00N 46°42' W 092°06'6 6.0 010 / 11017.3 19.4 16.6
2014-Jul-18 14:00N 46°48' W 092°06'0 0.0 040 / 41017.6 15.5 18.4
2014-Jul-18 13:00N 46°48' W 092°06'0 0.0 060 / 41017.3 14.4 14.9
2014-Jul-18 12:00N 46°48' W 092°06'25 8.4 030 / 31017.3 14.0 16.3
2014-Jul-18 09:00N 46°54' W 091°30'2411.9 160 / 61016.6 16.3 7.6
2014-Jul-18 07:00N 47°06' W 091°00'10513.1 340 / 21016.3 13.6 10.1
2014-Jul-17 23:00N 47°30' W 088°30'16412.7 190 / 101015.910.8 0.516.5 4.8
2014-Jul-17 10:00N 46°36' W 084°42'1010.2 160 / 41015.9 11.1 13.8
2014-Jul-17 09:00N 46°30' W 084°30'3 6.4 310 / 141014.9 11.4 13.8
2014-Jul-17 08:31N 46°29' W 084°26'1 2.4
2014-Jul-17 08:00N 46°30' W 084°24'4 4.1 240 / 41014.9 10.3 14.2
2014-Jul-17 07:00N 46°30' W 084°18'6 6.0 250 / 41014.7 10.6 14.2
2014-Jul-17 06:00N 46°24' W 084°18'12 7.7 300 / 21014.7 9.3 14.2
2014-Jul-17 04:23N 46°14' W 084°06'2 6.4
2014-Jul-17 04:00N 46°12' W 084°06'912.2 300 / 61014.3 12.1 15.0
2014-Jul-17 03:14N 46°04' W 083°60'910.8
2014-Jul-17 02:21N 45°56' W 083°53'1013.1
2014-Jul-17 01:33N 45°47' W 083°45'2012.6
2014-Jul-17 00:00N 45°30' W 083°30'1514.7 280 / 61013.3 15.5 13.2
2014-Jul-16 23:00N 45°18' W 083°18'1010.4 280 / 101012.710.8 0.515.7 13.4
2014-Jul-16 22:00N 45°12' W 083°06'2512.7 320 / 131012.010.8 0.516.9 15.6
2014-Jul-16 20:00N 44°48' W 082°54'1212.0 040 / 41013.0 16.1 16.3
2014-Jul-16 19:00N 44°36' W 082°54'3115.6 130 / 21013.7 16.1 16.0
2014-Jul-16 17:00N 44°06' W 082°42'3712.3 300 / 81013.3 14.8 18.9
2014-Jul-16 14:00N 43°30' W 082°30'1312.8 260 / 141013.0 13.5 18.7
2014-Jul-16 13:00N 43°18' W 082°24'1212.0 270 / 151012.7 12.8 18.7
2014-Jul-16 12:00N 43°06' W 082°24'6 6.0 270 / 141012.7 12.7 18.2
2014-Jul-16 11:00N 43°00' W 082°24'26 8.5 240 / 81012.7 11.8 18.7
2014-Jul-16 08:00N 42°36' W 082°36'18 8.9 300 / 61012.0 13.9 18.9
2014-Jul-16 06:00N 42°24' W 082°54'15 7.5 300 / 121011.8 16.1 22.3
2014-Jul-16 04:00N 42°12' W 083°06'6 6.0 240 / 71012.1 16.5 22.8
2014-Jul-16 03:00N 42°06' W 083°06'1212.0 290 / 141012.0 17.3 23.1
2014-Jul-16 02:00N 41°54' W 083°06'9 8.9 290 / 171011.310.8 0.518.1 23.7
2014-Jul-16 01:00N 41°54' W 083°18'0 0.0 300 / 141011.7 18.4 24.7
2014-Jul-16 00:00N 41°54' W 083°18'0 0.0 330 / 161011.0 19.0 25.5
2014-Jul-15 23:00N 41°54' W 083°18'0 0.0 340 / 121010.0 20.4 25.6
2014-Jul-15 22:00N 41°54' W 083°18'0 0.0 360 / 81010.0 21.2 25.5
2014-Jul-15 20:00N 41°54' W 083°18'0 0.0 210 / 61010.0 21.2 25.5
2014-Jul-15 19:00N 41°54' W 083°18'0 0.0 350 / 51009.6 21.6 25.4
2014-Jul-15 17:00N 41°54' W 083°18'0 0.0 030 / 31009.0 21.2 25.3
2014-Jul-15 16:00N 41°54' W 083°18'4 2.2 330 / 41009.0 21.6 25.3
2014-Jul-15 14:00N 41°54' W 083°12'   250 / 141008.3 18.3 23.8
Track history (hours):
 
Tides and Currents Weather Stations Pressure Air Temp Water Temp Dewpoint Dewpoint Depression Visibility Wind Speed Wind Dir Waves Ship Positions

Paul R Tregurtha

More information available from US FCC via Universal Licensing System and Coast Guard Vessel Documentation Center.

Last reported at 2014-Jul-25 14:00 UTC. Time now 2014-Jul-25 14:59 UTC.
Position N 47°12' W 090°48'.

Length 308 m; draft 7 m.

Type: Cargo ship. MMSI: 366904940.

Wind from 010 at 9 knots

Barometer 1010.2 mb
Air temperature 11.0 ° C
Visibility: greater than 10.8 NM
Water temperature 9.7 ° C

Date/timePositionNaut miles runAvg speedWind from/ knotsBaromVisibWave heightAir tempDewpointWater temp
2014-Jul-25 14:00N 47°12' W 090°48'1010.1 010 / 91010.210.8 11.0 9.7
2014-Jul-25 13:00N 47°06' W 091°00'1212.3 040 / 91010.5 12.2 8.5
2014-Jul-25 12:00N 47°06' W 091°18'1413.7 1011.510.8 0.510.4 9.8
2014-Jul-25 11:00N 47°00' W 091°36'1010.2 030 / 81010.810.8 0.510.0 11.1
2014-Jul-25 10:00N 46°54' W 091°48'1413.7 030 / 81011.2 12.1 13.3
2014-Jul-25 09:00N 46°48' W 092°06'6 6.0 030 / 11012.2 15.0 18.2
2014-Jul-25 08:00N 46°42' W 092°06'0 0.0 060 / 81012.2 15.2 18.7
2014-Jul-25 07:00N 46°42' W 092°06'0 0.0 070 / 101012.2 15.4 19.4
2014-Jul-25 06:00N 46°42' W 092°06'0 0.0 070 / 81013.2 17.1 18.1
2014-Jul-25 04:00N 46°42' W 092°06'0 0.0 070 / 41012.9 18.5 19.6
2014-Jul-25 03:00N 46°42' W 092°06'0 0.0 280 / 11014.2 19.6 19.5
2014-Jul-25 01:00N 46°42' W 092°06'0 0.0 060 / 41014.9 18.3 19.0
2014-Jul-25 00:00N 46°42' W 092°06'0 0.0 170 / 71014.2 19.5 18.4
2014-Jul-24 23:00N 46°42' W 092°06'20 6.8 060 / 61013.9 19.4 18.5
2014-Jul-24 20:00N 46°54' W 091°42'1413.7 080 / 61017.6 15.1 11.7
2014-Jul-24 19:00N 47°00' W 091°24'1212.3 090 / 81017.9 15.5 10.3
2014-Jul-24 18:00N 47°00' W 091°06'1413.7 100 / 31019.3 16.1 8.9
2014-Jul-24 17:00N 47°06' W 090°48'1413.6 070 / 21019.6 13.8 12.0
2014-Jul-24 16:00N 47°12' W 090°30'7813.0 090 / 21020.3 15.0 14.1
2014-Jul-24 10:00N 47°24' W 088°36'1413.6 250 / 71021.0 2.2 9.5 6.0
2014-Jul-24 09:00N 47°30' W 088°18'1212.2 220 / 131021.0 13.6 6.3
2014-Jul-24 08:00N 47°30' W 088°00'12912.9 250 / 91020.7 14.0 8.3
2014-Jul-23 22:00N 46°48' W 085°00'3110.2 280 / 161021.310.8 1.0 8.7 10.9
2014-Jul-23 19:00N 46°30' W 084°24'0 0.0 320 / 171021.0 16.9 14.8
2014-Jul-23 18:00N 46°30' W 084°24'4 4.1 280 / 91021.7 17.7 15.5
2014-Jul-23 17:00N 46°30' W 084°18'7 7.3 340 / 121020.1 18.2 15.2
2014-Jul-23 16:00N 46°24' W 084°12'20 9.9 060 / 61020.4 16.7 15.4
2014-Jul-23 14:00N 46°06' W 084°00'7 7.3 350 / 111019.4 15.4 17.6
2014-Jul-23 13:00N 46°00' W 083°54'2713.5 320 / 121019.410.8 1.014.6 16.7
2014-Jul-23 11:00N 45°36' W 083°36'3712.2 330 / 141017.410.8 1.514.4 15.8
2014-Jul-23 08:00N 45°06' W 083°06'1312.7 320 / 191013.3 14.9 15.4
2014-Jul-23 07:00N 44°54' W 083°00'3812.7 310 / 271012.310.8 1.015.4 17.1
2014-Jul-23 04:00N 44°18' W 082°42'2412.2 340 / 81012.3 20.6 19.1
2014-Jul-23 02:00N 43°54' W 082°36'2412.2 220 / 121012.3 26.2 20.9
2014-Jul-23 00:00N 43°30' W 082°30'1918.5 180 / 141013.010.8 0.526.9 21.0
2014-Jul-22 23:00N 43°12' W 082°24'1212.0 190 / 141013.7 27.8 21.4
2014-Jul-22 22:00N 43°00' W 082°24'7 7.4 200 / 141014.3 29.7 20.9
2014-Jul-22 21:00N 42°54' W 082°30'1212.0 180 / 141015.4 31.3 20.3
2014-Jul-22 20:00N 42°42' W 082°30'6 6.0 180 / 151016.4 30.9 20.1
2014-Jul-22 19:00N 42°36' W 082°30'3210.7 220 / 131016.7 30.4 20.3
2014-Jul-22 16:00N 42°18' W 083°06'1212.0 180 / 71018.2 26.7 22.9
2014-Jul-22 15:00N 42°06' W 083°06'6 6.0 190 / 71018.9 24.0 23.1
2014-Jul-22 14:00N 42°00' W 083°06'7 7.5 190 / 61019.5 22.8 23.2
2014-Jul-22 13:00N 41°54' W 083°12'4 2.2 240 / 71020.1 23.3 24.0
2014-Jul-22 11:00N 41°54' W 083°18'0 0.0 220 / 11019.8 23.1 25.3
2014-Jul-22 10:00N 41°54' W 083°18'0 0.0 170 / 11019.5 23.6 25.3
2014-Jul-22 09:00N 41°54' W 083°18'0 0.0 290 / 11019.5 23.7 25.4
2014-Jul-22 05:00N 41°54' W 083°18'0 0.0 020 / 11019.8 23.9 25.9
2014-Jul-22 04:00N 41°54' W 083°18'0 0.0 270 / 11019.8 24.2 25.7
2014-Jul-22 03:00N 41°54' W 083°18'0 0.0 290 / 41019.8 24.5 25.7
2014-Jul-22 02:00N 41°54' W 083°18'26 6.4 140 / 101020.1 24.7 26.2
2014-Jul-21 22:00N 42°18' W 083°06'1110.7 140 / 81019.6 27.4 22.6
2014-Jul-21 21:00N 42°24' W 082°54'2110.7 100 / 111019.9 23.8 22.2
2014-Jul-21 19:00N 42°36' W 082°30'1212.0 090 / 41020.4 25.9 20.2
2014-Jul-21 18:00N 42°48' W 082°30'0 0.0 180 / 71021.1 28.8 21.5
2014-Jul-21 17:00N 42°48' W 082°30'0 0.0 240 / 61021.5 29.1 22.1
2014-Jul-21 13:00N 42°48' W 082°30'0 0.0 250 / 31021.8 19.6 21.9
2014-Jul-21 11:00N 42°48' W 082°30'0 0.0 240 / 21021.1 16.3 21.8
2014-Jul-21 10:00N 42°48' W 082°30'0 0.0 240 / 21020.4 16.2 21.7
2014-Jul-21 08:00N 42°48' W 082°30'1312.8 020 / 21019.1 16.5 19.7
2014-Jul-21 07:00N 43°00' W 082°24'4210.5 030 / 11019.1 18.5 19.5
2014-Jul-21 03:00N 43°42' W 082°24'1212.0 110 / 41019.1 18.8 18.9
2014-Jul-21 02:00N 43°54' W 082°24'1312.8 140 / 51018.410.8 18.6 19.2
2014-Jul-21 01:00N 44°06' W 082°30'9112.9 080 / 51018.110.8 19.0 20.4
2014-Jul-20 18:00N 45°30' W 083°18'1012.7 120 / 101017.7 5.4 0.515.4 14.0
2014-Jul-20 17:10N 45°37' W 083°28'210.1
2014-Jul-20 17:00N 45°36' W 083°30'1116.6 140 / 121018.4 5.4 0.515.6 16.0
2014-Jul-20 16:21N 45°45' W 083°39'1012.7
2014-Jul-20 15:33N 45°52' W 083°49'4 7.5
2014-Jul-20 15:00N 45°54' W 083°54'917.5 110 / 111018.8 14.3 15.2
2014-Jul-20 14:30N 46°02' W 083°56'9 9.5
2014-Jul-20 13:33N 46°10' W 084°04'611.0
2014-Jul-20 13:00N 46°12' W 084°12'4 8.9 110 / 81018.4 16.8 16.3
2014-Jul-20 12:33N 46°16' W 084°11'6 6.5
2014-Jul-20 11:33N 46°22' W 084°13'8 8.3
2014-Jul-20 10:33N 46°30' W 084°19'1 1.0
2014-Jul-20 10:00N 46°30' W 084°18'2 5.1 100 / 41017.410.8 14.2 15.1
2014-Jul-20 09:33N 46°30' W 084°21'2 3.4
2014-Jul-20 09:00N 46°30' W 084°24'0 0.7 090 / 41017.3 14.9 15.0
2014-Jul-20 08:33N 46°30' W 084°24'0 0.6
2014-Jul-20 08:00N 46°30' W 084°24'511.9 070 / 41016.9 14.8 15.4
2014-Jul-20 07:33N 46°27' W 084°30'5 8.5
2014-Jul-20 07:00N 46°30' W 084°36'510.2 080 / 91016.9 15.7 15.1
2014-Jul-20 06:31N 46°33' W 084°41'1212.1
2014-Jul-20 05:33N 46°43' W 084°51'6 9.9
2014-Jul-20 05:00N 46°48' W 084°54'1413.7 170 / 61016.9 14.6 10.5
2014-Jul-20 04:00N 46°54' W 085°12'1413.7 140 / 151015.9 17.0 6.6
2014-Jul-20 03:00N 47°00' W 085°30'10812.0 150 / 171015.2 17.3 4.2
2014-Jul-19 18:00N 47°36' W 088°00'1212.1 190 / 151012.9 17.8 4.6
2014-Jul-19 17:00N 47°36' W 088°18'2512.5 180 / 131013.2 15.1 4.5
2014-Jul-19 15:00N 47°30' W 088°54'5012.5 180 / 181012.9 12.4 5.7
2014-Jul-19 11:00N 47°18' W 090°06'1212.2 180 / 171012.5 13.0 8.8
2014-Jul-19 10:00N 47°18' W 090°24'1413.6 180 / 151012.510.8 0.514.7 10.2
2014-Jul-19 09:00N 47°12' W 090°42'1212.2 250 / 61012.9 14.3 8.4
2014-Jul-19 08:00N 47°12' W 091°00'1413.6 270 / 21012.9 11.8 6.7
2014-Jul-19 07:00N 47°06' W 091°18'1010.1 360 / 51012.9 6.7 5.9
2014-Jul-19 06:00N 47°00' W 091°30'1413.7 040 / 71013.2 10.6 7.8
2014-Jul-19 05:00N 46°54' W 091°48'1413.7 040 / 51013.2 9.6 12.0
2014-Jul-19 04:00N 46°48' W 092°06'6 3.0 040 / 21013.9 12.9 15.6
2014-Jul-19 02:00N 46°42' W 092°06'0 0.0 040 / 91013.5 14.5 14.5
2014-Jul-19 01:00N 46°42' W 092°06'0 0.0 050 / 71013.5 14.2 15.7
2014-Jul-19 00:00N 46°42' W 092°06'0 0.0 030 / 81013.9 15.0 16.3
2014-Jul-18 23:00N 46°42' W 092°06'0 0.0 040 / 121014.2 15.9 18.5
2014-Jul-18 20:00N 46°42' W 092°06'0 0.0 230 / 91014.9 27.2 15.7
2014-Jul-18 19:00N 46°42' W 092°06'0 0.0 200 / 141014.9 26.3 15.3
2014-Jul-18 17:00N 46°42' W 092°06'0 0.0 050 / 71016.3 17.7 15.7
2014-Jul-18 15:00N 46°42' W 092°06'6 6.0 010 / 11017.3 19.4 16.6
2014-Jul-18 14:00N 46°48' W 092°06'0 0.0 040 / 41017.6 15.5 18.4
2014-Jul-18 13:00N 46°48' W 092°06'0 0.0 060 / 41017.3 14.4 14.9
2014-Jul-18 12:00N 46°48' W 092°06'25 8.4 030 / 31017.3 14.0 16.3
2014-Jul-18 09:00N 46°54' W 091°30'2411.9 160 / 61016.6 16.3 7.6
2014-Jul-18 07:00N 47°06' W 091°00'10513.1 340 / 21016.3 13.6 10.1
2014-Jul-17 23:00N 47°30' W 088°30'16412.7 190 / 101015.910.8 0.516.5 4.8
2014-Jul-17 10:00N 46°36' W 084°42'1010.2 160 / 41015.9 11.1 13.8
2014-Jul-17 09:00N 46°30' W 084°30'3 6.4 310 / 141014.9 11.4 13.8
2014-Jul-17 08:31N 46°29' W 084°26'1 2.4
2014-Jul-17 08:00N 46°30' W 084°24'4 4.1 240 / 41014.9 10.3 14.2
2014-Jul-17 07:00N 46°30' W 084°18'6 6.0 250 / 41014.7 10.6 14.2
2014-Jul-17 06:00N 46°24' W 084°18'12 7.7 300 / 21014.7 9.3 14.2
2014-Jul-17 04:23N 46°14' W 084°06'2 6.4
2014-Jul-17 04:00N 46°12' W 084°06'912.2 300 / 61014.3 12.1 15.0
2014-Jul-17 03:14N 46°04' W 083°60'910.8
2014-Jul-17 02:21N 45°56' W 083°53'1013.1
2014-Jul-17 01:33N 45°47' W 083°45'2012.6
2014-Jul-17 00:00N 45°30' W 083°30'1514.7 280 / 61013.3 15.5 13.2
2014-Jul-16 23:00N 45°18' W 083°18'1010.4 280 / 101012.710.8 0.515.7 13.4
2014-Jul-16 22:00N 45°12' W 083°06'2512.7 320 / 131012.010.8 0.516.9 15.6
2014-Jul-16 20:00N 44°48' W 082°54'1212.0 040 / 41013.0 16.1 16.3
2014-Jul-16 19:00N 44°36' W 082°54'3115.6 130 / 21013.7 16.1 16.0
2014-Jul-16 17:00N 44°06' W 082°42'3712.3 300 / 81013.3 14.8 18.9
2014-Jul-16 14:00N 43°30' W 082°30'1312.8 260 / 141013.0 13.5 18.7
2014-Jul-16 13:00N 43°18' W 082°24'1212.0 270 / 151012.7 12.8 18.7
2014-Jul-16 12:00N 43°06' W 082°24'6 6.0 270 / 141012.7 12.7 18.2
2014-Jul-16 11:00N 43°00' W 082°24'26 8.5 240 / 81012.7 11.8 18.7
2014-Jul-16 08:00N 42°36' W 082°36'18 8.9 300 / 61012.0 13.9 18.9
2014-Jul-16 06:00N 42°24' W 082°54'15 7.5 300 / 121011.8 16.1 22.3
2014-Jul-16 04:00N 42°12' W 083°06'6 6.0 240 / 71012.1 16.5 22.8
2014-Jul-16 03:00N 42°06' W 083°06'1212.0 290 / 141012.0 17.3 23.1
2014-Jul-16 02:00N 41°54' W 083°06'9 8.9 290 / 171011.310.8 0.518.1 23.7
2014-Jul-16 01:00N 41°54' W 083°18'0 0.0 300 / 141011.7 18.4 24.7
2014-Jul-16 00:00N 41°54' W 083°18'0 0.0 330 / 161011.0 19.0 25.5
2014-Jul-15 23:00N 41°54' W 083°18'0 0.0 340 / 121010.0 20.4 25.6
2014-Jul-15 22:00N 41°54' W 083°18'0 0.0 360 / 81010.0 21.2 25.5
2014-Jul-15 20:00N 41°54' W 083°18'0 0.0 210 / 61010.0 21.2 25.5
2014-Jul-15 19:00N 41°54' W 083°18'0 0.0 350 / 51009.6 21.6 25.4
2014-Jul-15 17:00N 41°54' W 083°18'0 0.0 030 / 31009.0 21.2 25.3
2014-Jul-15 16:00N 41°54' W 083°18'4 2.2 330 / 41009.0 21.6 25.3
2014-Jul-15 14:00N 41°54' W 083°12'   250 / 141008.3 18.3 23.8

Dump ship's entire track history